createdAt,value
2019-04-19T00:01:24.786Z,9
2019-04-19T00:06:31.547Z,9
2019-04-19T00:11:38.208Z,10
2019-04-19T00:16:32.175Z,10
2019-04-19T00:21:57.283Z,11
2019-04-19T00:26:37.944Z,10
2019-04-19T00:31:47.616Z,11
2019-04-19T00:36:42.587Z,11
2019-04-19T00:42:04.730Z,12
2019-04-19T00:47:18.895Z,11
2019-04-19T00:51:59.685Z,11
2019-04-19T00:56:59.551Z,12
2019-04-19T01:02:00.679Z,11
2019-04-19T01:07:00.290Z,12
2019-04-19T01:12:10.158Z,12
2019-04-19T01:17:16.140Z,12
2019-04-19T01:22:10.248Z,12
2019-04-19T01:27:06.849Z,11
2019-04-19T01:32:13.601Z,12
2019-04-19T01:37:17.544Z,13
2019-04-19T01:42:31.097Z,13
2019-04-19T01:47:36.089Z,11
2019-04-19T01:52:44.805Z,12
2019-04-19T01:57:24.225Z,11
2019-04-19T02:07:29.227Z,12
2019-04-19T02:12:39.159Z,11
2019-04-19T02:17:34.622Z,12
2019-04-19T02:22:36.744Z,12
2019-04-19T02:27:40.396Z,11
2019-04-19T02:32:57.667Z,13
2019-04-19T02:37:56.945Z,11
2019-04-19T02:43:14.043Z,13
2019-04-19T02:48:15.839Z,13
2019-04-19T02:53:15.631Z,12
2019-04-19T02:58:16.398Z,13
2019-04-19T03:03:19.682Z,12
2019-04-19T03:07:55.684Z,12
2019-04-19T03:13:12.583Z,13
2019-04-19T03:18:23.089Z,13
2019-04-19T03:23:17.438Z,13
2019-04-19T03:28:15.010Z,14
2019-04-19T03:33:33.023Z,14
2019-04-19T03:38:29.321Z,14
2019-04-19T03:48:32.528Z,13
2019-04-19T03:53:44.797Z,16
2019-04-19T03:58:23.223Z,14
2019-04-19T04:03:30.199Z,14
2019-04-19T04:08:26.226Z,15
2019-04-19T04:13:37.052Z,15
2019-04-19T04:18:30.283Z,15
2019-04-19T04:23:39.055Z,15
2019-04-19T04:28:48.070Z,16
2019-04-19T04:33:49.044Z,16
2019-04-19T04:38:44.214Z,16
2019-04-19T04:43:59.669Z,15
2019-04-19T04:49:03.800Z,14
2019-04-19T04:53:47.306Z,14
2019-04-19T04:58:51.096Z,15
2019-04-19T05:04:06.788Z,14
2019-04-19T05:09:07.964Z,15
2019-04-19T05:14:16.569Z,17
2019-04-19T05:19:17.671Z,14
2019-04-19T05:24:20.513Z,13
2019-04-19T05:29:17.414Z,15
2019-04-19T05:34:24.859Z,14
2019-04-19T05:39:31.221Z,12
2019-04-19T05:44:35.146Z,11
2019-04-19T05:49:26.152Z,13
2019-04-19T05:54:18.617Z,12
2019-04-19T05:59:31.515Z,11
2019-04-19T06:04:40.749Z,12
2019-04-19T06:09:24.113Z,12
2019-04-19T06:14:50.406Z,11
2019-04-19T06:19:44.288Z,12
2019-04-19T06:29:58.468Z,11
2019-04-19T06:39:39.456Z,8
2019-04-19T06:45:02.768Z,8
2019-04-19T06:49:43.791Z,8
2019-04-19T06:54:47.609Z,8
2019-04-19T07:00:02.579Z,7
2019-04-19T07:04:58.999Z,8
2019-04-19T07:10:24.696Z,7
2019-04-19T07:15:25.757Z,6
2019-04-19T07:20:14.680Z,7
2019-04-19T07:25:24.793Z,6
2019-04-19T07:30:05.169Z,6
2019-04-19T07:35:18.727Z,6
2019-04-19T07:40:30.468Z,6
2019-04-19T07:45:13.583Z,6
2019-04-19T07:50:19.561Z,5
2019-04-19T07:55:17.298Z,5
2019-04-19T08:05:59.116Z,6
2019-04-19T08:30:39.741Z,6
2019-04-19T08:35:39.652Z,5
2019-04-19T08:40:52.807Z,5
2019-04-19T08:45:40.498Z,5
2019-04-19T08:50:48.537Z,6
2019-04-19T08:55:59.248Z,6
2019-04-19T09:06:35.991Z,5
2019-04-19T09:11:10.797Z,5
2019-04-19T09:16:11.168Z,5
2019-04-19T09:21:13.830Z,6
2019-04-19T09:26:14.159Z,5
2019-04-19T09:31:16.713Z,5
2019-04-19T09:36:10.151Z,6
2019-04-19T09:41:19.076Z,5
2019-04-19T09:46:10.396Z,5
2019-04-19T09:51:27.753Z,6
2019-04-19T09:56:30.977Z,5
2019-04-19T10:01:20.896Z,6
2019-04-19T10:06:20.658Z,7
2019-04-19T10:11:23.193Z,6
2019-04-19T10:16:24.598Z,6
2019-04-19T10:21:32.170Z,6
2019-04-19T10:26:29.882Z,5
2019-04-19T10:31:32.001Z,6
2019-04-19T10:36:34.445Z,6
2019-04-19T10:41:36.895Z,5
2019-04-19T10:46:40.695Z,6
2019-04-19T10:51:41.930Z,6
2019-04-19T10:56:44.340Z,7
2019-04-19T11:01:47.802Z,6
2019-04-19T11:06:49.415Z,6
2019-04-19T11:11:51.937Z,6
2019-04-19T11:16:55.524Z,6
2019-04-19T11:21:56.678Z,6
2019-04-19T11:26:59.227Z,6
2019-04-19T11:32:01.834Z,5
2019-04-19T11:47:08.999Z,5
2019-04-19T11:52:12.622Z,5
2019-04-19T11:57:14.373Z,5
2019-04-19T12:02:16.292Z,6
2019-04-19T12:07:18.706Z,5
2019-04-19T12:12:21.260Z,5
2019-04-19T12:17:23.647Z,6
2019-04-19T12:22:27.185Z,5
2019-04-19T12:27:29.603Z,6
2019-04-19T12:32:31.365Z,5
2019-04-19T12:37:33.475Z,5
2019-04-19T12:42:36.091Z,6
2019-04-19T12:47:38.404Z,6
2019-04-19T12:52:42.137Z,5
2019-04-19T12:57:43.915Z,6
2019-04-19T13:02:46.091Z,5
2019-04-19T13:07:49.284Z,6
2019-04-19T13:12:51.865Z,5
2019-04-19T13:17:54.010Z,6
2019-04-19T13:22:56.533Z,6
2019-04-19T13:27:59.991Z,6
2019-04-19T13:33:00.677Z,6
2019-04-19T13:38:03.292Z,6
2019-04-19T13:43:06.641Z,6
2019-04-19T13:48:07.953Z,6
2019-04-19T13:53:10.860Z,5
2019-04-19T13:58:13.713Z,6
2019-04-19T14:03:15.334Z,6
2019-04-19T14:08:17.730Z,6
2019-04-19T14:13:21.120Z,5
2019-04-19T14:18:22.665Z,5
2019-04-19T14:23:25.736Z,5
2019-04-19T14:28:27.574Z,6
2019-04-19T14:33:30.756Z,5
2019-04-19T14:38:33.772Z,5
2019-04-19T14:43:36.435Z,5
2019-04-19T14:48:40.400Z,4
2019-04-19T14:53:40.770Z,6
2019-04-19T14:58:42.722Z,5
2019-04-19T15:03:45.224Z,5
2019-04-19T15:08:47.593Z,5
2019-04-19T15:13:51.154Z,4
2019-04-19T15:18:52.231Z,5
2019-04-19T15:23:54.613Z,5
2019-04-19T15:28:57.083Z,4
2019-04-19T15:34:00.788Z,4
2019-04-19T15:39:02.158Z,5
2019-04-19T15:44:04.553Z,4
2019-04-19T15:49:08.088Z,4
2019-04-19T15:54:14.423Z,5
2019-04-19T15:59:12.612Z,5
2019-04-19T16:04:14.643Z,5
2019-04-19T16:09:17.161Z,5
2019-04-19T16:14:19.811Z,6
2019-04-19T16:19:22.573Z,4
2019-04-19T16:24:25.183Z,5
2019-04-19T16:29:34.259Z,5
2019-04-19T16:34:31.144Z,5
2019-04-19T16:39:31.626Z,6
2019-04-19T16:44:34.133Z,7
2019-04-19T16:49:36.540Z,7
2019-04-19T16:54:38.999Z,7
2019-04-19T16:59:41.760Z,6
2019-04-19T17:09:47.482Z,6
2019-04-19T17:14:48.702Z,7
2019-04-19T17:19:51.164Z,8
2019-04-19T17:24:54.742Z,7
2019-04-19T17:29:56.467Z,7
2019-04-19T17:34:58.554Z,7
2019-04-19T17:40:01.125Z,7
2019-04-19T17:50:06.859Z,6
2019-04-19T17:55:18.229Z,7
2019-04-19T18:00:10.823Z,8
2019-04-19T18:05:13.920Z,8
2019-04-19T18:10:18.648Z,8
2019-04-19T18:15:19.441Z,8
2019-04-19T18:20:22.890Z,9
2019-04-19T18:25:26.505Z,8
2019-04-19T18:30:26.311Z,8
2019-04-19T18:35:30.727Z,8
2019-04-19T18:40:31.151Z,9
2019-04-19T18:45:37.173Z,10
2019-04-19T18:50:37.815Z,9
2019-04-19T18:55:41.984Z,10
2019-04-19T19:00:44.265Z,10
2019-04-19T19:05:47.811Z,11
2019-04-19T19:10:48.895Z,10
2019-04-19T19:15:51.543Z,10
2019-04-19T19:20:54.697Z,10
2019-04-19T19:26:05.955Z,11
2019-04-19T19:30:55.075Z,10
2019-04-19T19:35:59.938Z,9
2019-04-19T19:41:15.962Z,9
2019-04-19T19:46:25.622Z,9
2019-04-19T19:51:17.435Z,10
2019-04-19T19:56:39.346Z,10
2019-04-19T20:01:24.205Z,10
2019-04-19T20:06:17.200Z,11
2019-04-19T20:11:20.294Z,11
2019-04-19T20:16:23.560Z,10
2019-04-19T20:21:21.364Z,9
2019-04-19T20:26:30.227Z,10
2019-04-19T20:31:31.049Z,11
2019-04-19T20:36:29.561Z,10
2019-04-19T20:41:34.597Z,11
2019-04-19T20:46:33.285Z,11
2019-04-19T20:51:46.793Z,10
2019-04-19T20:56:56.350Z,10
2019-04-19T21:01:39.332Z,9
2019-04-19T21:06:44.384Z,10
2019-04-19T21:11:48.076Z,8
2019-04-19T21:16:51.428Z,9
2019-04-19T21:21:52.326Z,9
2019-04-19T21:26:55.672Z,9
2019-04-19T21:31:56.357Z,11
2019-04-19T21:37:01.176Z,14
2019-04-19T21:42:02.815Z,11
2019-04-19T21:47:04.561Z,11
2019-04-19T21:52:10.595Z,11
2019-04-19T21:57:06.847Z,10
2019-04-19T22:02:08.834Z,11
2019-04-19T22:07:11.264Z,11
2019-04-19T22:12:14.464Z,10
2019-04-19T22:17:19.636Z,11
2019-04-19T22:22:23.892Z,9
2019-04-19T22:27:21.283Z,10
2019-04-19T22:32:25.246Z,12
2019-04-19T22:37:30.065Z,10
2019-04-19T22:42:29.167Z,11
2019-04-19T22:47:33.275Z,14
2019-04-19T22:52:34.513Z,12
2019-04-19T22:57:41.400Z,13
2019-04-19T23:02:43.550Z,11
2019-04-19T23:07:47.219Z,15
2019-04-19T23:12:43.845Z,12
2019-04-19T23:17:46.274Z,13
2019-04-19T23:22:49.242Z,12
2019-04-19T23:27:54.682Z,13
2019-04-19T23:32:54.232Z,14
2019-04-19T23:37:55.662Z,13
2019-04-19T23:42:58.573Z,13
2019-04-19T23:48:00.504Z,11
2019-04-19T23:53:04.232Z,13
2019-04-19T23:58:06.083Z,11
